Time;durP1;ratioP1;P1;durP2;ratioP2;P2;SDS_P1;SDS_P2;PMS_P1;PMS_P2;Temp;Humidity;BMP_temperature;BMP_pressure;BME280_temperature;BME280_humidity;BME280_pressure;Samples;Min_cycle;Max_cycle;Signal;HPM_P1;HPM_P2
2021/01/02 00:01:18;;;;;;;70.22;34.38;;;5.50;99.90;;;;;;5086440;28;20471;-74
2021/01/02 00:03:47;;;;;;;57.38;28.42;;;5.50;99.90;;;;;;5084099;28;20024;-72
2021/01/02 00:06:16;;;;;;;52.38;26.23;;;5.50;99.90;;;;;;5088717;28;20386;-75
2021/01/02 00:08:49;;;;;;;40.78;23.70;;;5.50;99.90;;;;;;5067353;28;20391;-74
2021/01/02 00:11:50;;;;;;;;;;;5.70;99.90;;;;;;5091975;28;20220;-75
2021/01/02 00:14:38;;;;;;;47.83;27.52;;;5.10;99.90;;;;;;5053407;28;19973;-77
2021/01/02 00:17:19;;;;;;;49.75;25.65;;;5.50;99.90;;;;;;5091219;28;20057;-77
2021/01/02 00:20:00;;;;;;;41.30;23.77;;;4.30;99.90;;;;;;5091321;28;20032;-72
2021/01/02 00:22:47;;;;;;;44.38;24.95;;;5.30;99.90;;;;;;5090515;28;20035;-72
2021/01/02 00:25:17;;;;;;;40.20;23.92;;;5.40;99.90;;;;;;5093766;28;20035;-72
2021/01/02 00:27:54;;;;;;;46.47;23.85;;;4.80;99.90;;;;;;5074336;28;20024;-72
2021/01/02 00:30:38;;;;;;;45.67;23.10;;;5.70;99.90;;;;;;5093537;28;20161;-73
2021/01/02 00:33:18;;;;;;;;;;;5.30;99.90;;;;;;5093018;28;20386;-73
2021/01/02 00:35:47;;;;;;;41.65;22.98;;;5.30;99.90;;;;;;5094490;28;19904;-74
2021/01/02 00:38:14;;;;;;;47.88;26.52;;;5.30;99.90;;;;;;5046856;28;20474;-75
2021/01/02 00:40:40;;;;;;;54.60;30.15;;;5.20;99.90;;;;;;5094864;28;20018;-75
2021/01/02 00:43:06;;;;;;;55.28;31.00;;;5.10;99.90;;;;;;5090864;28;20382;-80
2021/01/02 00:45:33;;;;;;;50.97;29.23;;;5.00;99.90;;;;;;5087213;28;20057;-74
2021/01/02 00:48:00;;;;;;;65.15;32.90;;;4.90;99.90;;;;;;5095098;28;20099;-78
2021/01/02 00:50:27;;;;;;;48.10;27.25;;;4.90;99.90;;;;;;5094456;28;20028;-74
2021/01/02 00:53:08;;;;;;;57.78;28.33;;;4.80;99.90;;;;;;5094292;28;20020;-73
2021/01/02 00:56:11;;;;;;;58.70;29.90;;;4.60;99.90;;;;;;5095342;28;20470;-74
2021/01/02 00:58:42;;;;;;;54.45;28.00;;;;;;;;;;5094358;28;20153;-73
2021/01/02 01:01:18;;;;;;;50.60;27.02;;;4.70;99.90;;;;;;5094678;28;20032;-75
2021/01/02 01:04:21;;;;;;;45.92;23.85;;;4.70;99.90;;;;;;5094691;28;20027;-77
2021/01/02 01:06:54;;;;;;;45.35;23.77;;;4.90;99.90;;;;;;5091675;28;20055;-73
2021/01/02 01:09:24;;;;;;;58.65;26.15;;;4.90;99.90;;;;;;5093732;28;20053;-75
2021/01/02 01:11:57;;;;;;;52.65;27.83;;;4.90;99.90;;;;;;5093698;28;20040;-75
2021/01/02 01:14:23;;;;;;;48.92;26.33;;;4.70;99.90;;;;;;5093448;28;20031;-75
2021/01/02 01:16:57;;;;;;;52.95;26.80;;;4.90;99.90;;;;;;5093972;28;20373;-78
2021/01/02 01:19:28;;;;;;;51.13;27.95;;;4.80;99.90;;;;;;5094014;28;20039;-76
2021/01/02 01:21:58;;;;;;;65.50;29.85;;;4.70;99.90;;;;;;5092954;28;20120;-77
2021/01/02 01:24:44;;;;;;;53.05;26.55;;;4.60;99.90;;;;;;5092893;28;20477;-76
2021/01/02 01:27:20;;;;;;;54.47;28.85;;;4.60;99.90;;;;;;5092781;28;20028;-76
2021/01/02 01:29:48;;;;;;;56.35;27.05;;;4.50;99.90;;;;;;5093739;28;20028;-75
2021/01/02 01:32:23;;;;;;;46.83;27.70;;;4.60;99.90;;;;;;5064938;28;20044;-78
2021/01/02 01:34:55;;;;;;;52.45;27.25;;;4.40;99.90;;;;;;5094785;28;20027;-75
2021/01/02 01:37:24;;;;;;;56.08;29.77;;;4.50;99.90;;;;;;5092248;28;20016;-75
2021/01/02 01:39:51;;;;;;;64.75;30.15;;;4.60;99.90;;;;;;5092131;28;20074;-76
2021/01/02 01:42:41;;;;;;;69.13;34.30;;;4.50;99.90;;;;;;5092122;28;20024;-74
2021/01/02 01:45:25;;;;;;;69.10;34.03;;;4.60;99.90;;;;;;5083661;28;20020;-75
2021/01/02 01:48:10;;;;;;;58.58;31.50;;;4.60;99.90;;;;;;5090912;28;20071;-73
2021/01/02 01:50:45;;;;;;;56.78;28.05;;;4.60;99.90;;;;;;5091965;28;20037;-76
2021/01/02 01:53:57;;;;;;;46.17;24.00;;;4.60;99.90;;;;;;5072223;28;20449;-75
2021/01/02 01:56:34;;;;;;;42.13;23.67;;;4.70;99.90;;;;;;5087266;28;20100;-73
2021/01/02 01:59:20;;;;;;;37.38;21.55;;;4.70;99.90;;;;;;5093812;28;20073;-74
2021/01/02 02:01:49;;;;;;;39.47;23.88;;;4.70;99.90;;;;;;5093682;28;20016;-73
2021/01/02 02:05:00;;;;;;;40.30;22.10;;;4.80;99.90;;;;;;5062101;28;20036;-72
2021/01/02 02:07:44;;;;;;;35.95;20.67;;;4.70;99.90;;;;;;5066065;28;20035;-73
2021/01/02 02:10:26;;;;;;;36.08;21.08;;;4.70;99.90;;;;;;5100039;28;20072;-74
2021/01/02 02:13:00;;;;;;;46.33;23.02;;;4.70;99.90;;;;;;5094129;28;20024;-77
2021/01/02 02:15:29;;;;;;;50.03;23.08;;;4.60;99.90;;;;;;5088342;28;20031;-75
2021/01/02 02:18:09;;;;;;;62.00;25.45;;;4.70;99.90;;;;;;5102464;28;20028;-75
2021/01/02 02:20:35;;;;;;;56.13;28.52;;;4.60;99.90;;;;;;5074453;28;20064;-76
2021/01/02 02:23:07;;;;;;;58.28;28.73;;;4.50;99.90;;;;;;5093296;28;20416;-73
2021/01/02 02:26:05;;;;;;;64.95;30.90;;;4.50;99.90;;;;;;5068290;28;20070;-76
2021/01/02 02:28:53;;;;;;;74.10;29.35;;;4.50;99.90;;;;;;5060729;28;20039;-76
2021/01/02 02:31:20;;;;;;;71.43;32.72;;;4.40;99.90;;;;;;5092790;28;20056;-77
2021/01/02 02:34:00;;;;;;;65.72;29.63;;;4.40;99.90;;;;;;5070197;28;20375;-77
2021/01/02 02:36:29;;;;;;;67.40;30.58;;;4.40;99.90;;;;;;5051160;28;20020;-78
2021/01/02 02:38:58;;;;;;;72.38;30.70;;;4.40;99.90;;;;;;5055467;28;20029;-75
2021/01/02 02:41:28;;;;;;;62.65;31.20;;;4.30;99.90;;;;;;5084723;28;20024;-76
2021/01/02 02:43:56;;;;;;;72.85;32.78;;;4.30;99.90;;;;;;5054339;28;20020;-79
2021/01/02 02:46:23;;;;;;;79.05;35.08;;;4.30;99.90;;;;;;5092320;28;20402;-75
2021/01/02 02:48:53;;;;;;;78.72;35.08;;;4.20;99.90;;;;;;5092808;28;20386;-76
2021/01/02 02:51:22;;;;;;;73.78;35.00;;;4.40;99.90;;;;;;5073480;28;20028;-76
2021/01/02 02:53:50;;;;;;;71.30;34.15;;;4.10;99.90;;;;;;5092979;28;20111;-75
2021/01/02 02:56:17;;;;;;;77.72;33.80;;;4.20;99.90;;;;;;5092706;28;20458;-75
2021/01/02 02:58:43;;;;;;;83.85;36.25;;;4.20;99.90;;;;;;5092120;28;20122;-73
2021/01/02 03:01:09;;;;;;;79.18;35.50;;;4.10;99.90;;;;;;5092416;28;20031;-74
2021/01/02 03:03:35;;;;;;;79.07;37.50;;;4.10;99.90;;;;;;5092794;28;20031;-73
2021/01/02 03:06:01;;;;;;;101.93;36.00;;;4.10;99.90;;;;;;5091928;28;20466;-75
2021/01/02 03:08:28;;;;;;;81.47;33.70;;;4.00;99.90;;;;;;5092140;28;20028;-73
2021/01/02 03:10:55;;;;;;;69.93;29.92;;;4.20;99.90;;;;;;5092365;28;20024;-79
2021/01/02 03:13:20;;;;;;;61.22;30.05;;;4.10;99.90;;;;;;5091648;28;20051;-76
2021/01/02 03:15:46;;;;;;;58.08;28.35;;;4.10;99.90;;;;;;5092513;28;20020;-75
2021/01/02 03:18:12;;;;;;;49.08;24.98;;;4.10;99.90;;;;;;5092395;28;20055;-76
2021/01/02 03:20:38;;;;;;;37.63;21.20;;;4.10;99.90;;;;;;5091737;28;20081;-75
2021/01/02 03:23:04;;;;;;;46.05;23.15;;;4.00;99.90;;;;;;5092519;28;20032;-74
2021/01/02 03:25:30;;;;;;;36.47;21.75;;;4.10;99.90;;;;;;5092622;28;20020;-74
2021/01/02 03:27:57;;;;;;;42.30;21.30;;;4.10;99.90;;;;;;5091594;28;20552;-73
2021/01/02 03:30:26;;;;;;;39.92;20.42;;;4.10;99.90;;;;;;5059181;28;20458;-77
2021/01/02 03:32:52;;;;;;;40.78;21.80;;;4.10;99.90;;;;;;5092341;28;20081;-75
2021/01/02 03:35:18;;;;;;;38.65;22.02;;;3.50;99.90;;;;;;5092719;28;20032;-76
2021/01/02 03:37:46;;;;;;;40.75;21.50;;;4.20;99.90;;;;;;5093429;28;20024;-76
2021/01/02 03:40:14;;;;;;;46.97;22.88;;;4.00;99.90;;;;;;5092562;28;20020;-76
2021/01/02 03:42:45;;;;;;;47.83;25.92;;;4.10;99.90;;;;;;5089811;28;20073;-74
2021/01/02 03:45:13;;;;;;;40.38;21.08;;;4.20;99.90;;;;;;5081987;28;20028;-73
2021/01/02 03:47:44;;;;;;;37.53;20.60;;;4.10;99.90;;;;;;5078175;28;20029;-73
2021/01/02 03:50:10;;;;;;;54.38;24.83;;;4.20;99.90;;;;;;5092897;28;20041;-75
2021/01/02 03:52:37;;;;;;;52.70;25.45;;;4.20;99.90;;;;;;5077479;28;20471;-74
2021/01/02 03:55:06;;;;;;;60.97;26.75;;;4.10;99.90;;;;;;5092382;28;20020;-75
2021/01/02 03:57:32;;;;;;;56.28;24.58;;;4.20;99.90;;;;;;5079633;28;20029;-73
2021/01/02 03:59:58;;;;;;;47.00;25.35;;;4.10;99.90;;;;;;5081147;28;20477;-76
2021/01/02 04:02:27;;;;;;;60.53;25.90;;;4.20;99.90;;;;;;5067478;28;20020;-73
2021/01/02 04:04:53;;;;;;;42.78;21.02;;;4.10;99.90;;;;;;5076162;28;20379;-74
2021/01/02 04:07:19;;;;;;;43.47;21.85;;;4.10;99.90;;;;;;5086988;28;20020;-74
2021/01/02 04:09:45;;;;;;;36.30;20.63;;;4.10;99.90;;;;;;5090146;28;20032;-74
2021/01/02 04:12:11;;;;;;;44.38;20.95;;;4.30;99.90;;;;;;5075511;28;20039;-76
2021/01/02 04:14:37;;;;;;;46.03;20.23;;;4.00;99.90;;;;;;5089585;28;20024;-72
2021/01/02 04:17:04;;;;;;;48.63;23.17;;;4.10;99.90;;;;;;5096298;28;20024;-74
2021/01/02 04:19:32;;;;;;;47.33;23.20;;;4.10;99.90;;;;;;5066742;28;20032;-74
2021/01/02 04:21:59;;;;;;;58.83;25.42;;;4.10;99.90;;;;;;5094342;28;20490;-72
2021/01/02 04:24:25;;;;;;;61.80;27.45;;;4.10;99.90;;;;;;5096657;28;20024;-73
2021/01/02 04:26:50;;;;;;;51.90;26.92;;;4.20;99.90;;;;;;5096038;28;20020;-73
2021/01/02 04:29:16;;;;;;;56.40;26.25;;;4.10;99.90;;;;;;5095943;28;20062;-74
2021/01/02 04:31:42;;;;;;;46.38;22.63;;;3.70;99.90;;;;;;5095519;28;20048;-75
2021/01/02 04:34:09;;;;;;;35.53;19.73;;;4.00;99.90;;;;;;5096038;28;20389;-75
2021/01/02 04:36:36;;;;;;;33.63;20.13;;;3.90;99.90;;;;;;5095975;28;20024;-76
2021/01/02 04:39:04;;;;;;;34.50;20.13;;;;;;;;;;5059232;28;20025;-74
2021/01/02 04:41:30;;;;;;;32.75;19.80;;;;;;;;;;5086967;28;20024;-74
2021/01/02 04:43:56;;;;;;;39.70;19.23;;;3.50;99.90;;;;;;5073712;28;20019;-73
2021/01/02 04:46:22;;;;;;;34.40;17.58;;;3.60;99.90;;;;;;5096176;28;20355;-74
2021/01/02 04:48:48;;;;;;;33.15;19.02;;;3.70;99.90;;;;;;5100982;28;20036;-73
2021/01/02 04:51:15;;;;;;;38.35;19.42;;;3.60;99.90;;;;;;5103851;28;20077;-73
2021/01/02 04:53:41;;;;;;;40.65;22.17;;;3.70;99.90;;;;;;5099230;28;20073;-75
2021/01/02 04:56:09;;;;;;;39.05;20.88;;;3.60;99.90;;;;;;5095758;28;20058;-74
2021/01/02 04:58:41;;;;;;;42.45;22.08;;;3.70;99.90;;;;;;5098496;28;20035;-74
2021/01/02 05:01:09;;;;;;;53.35;25.63;;;3.60;99.90;;;;;;5097862;28;20016;-73
2021/01/02 05:03:36;;;;;;;60.80;24.20;;;3.70;99.90;;;;;;5085450;28;20107;-72
2021/01/02 05:06:02;;;;;;;61.60;23.67;;;3.70;99.90;;;;;;5095668;28;20103;-75
2021/01/02 05:08:31;;;;;;;43.42;20.30;;;3.80;99.90;;;;;;5110787;28;20036;-75
2021/01/02 05:11:04;;;;;;;31.98;16.75;;;3.70;99.90;;;;;;5089882;28;20024;-74
2021/01/02 05:13:33;;;;;;;34.47;17.10;;;3.80;99.90;;;;;;5091985;28;20044;-74
2021/01/02 05:16:23;;;;;;;33.63;17.15;;;3.70;99.90;;;;;;5091054;28;20028;-77
2021/01/02 05:19:00;;;;;;;23.80;13.82;;;3.80;99.90;;;;;;5094514;28;20032;-75
2021/01/02 05:21:30;;;;;;;23.92;15.32;;;3.80;99.90;;;;;;5096190;28;20078;-74
2021/01/02 05:24:03;;;;;;;26.58;15.80;;;3.80;99.90;;;;;;5074073;28;20488;-73
2021/01/02 05:26:29;;;;;;;29.33;14.55;;;3.70;99.90;;;;;;5095130;28;20026;-74
2021/01/02 05:29:14;;;;;;;30.65;16.33;;;3.60;99.90;;;;;;5094849;28;20077;-72
2021/01/02 05:31:42;;;;;;;29.20;18.02;;;3.60;99.90;;;;;;5094395;28;20123;-73
2021/01/02 05:34:10;;;;;;;32.65;17.70;;;3.50;99.90;;;;;;5090157;28;20307;-73
2021/01/02 05:36:36;;;;;;;41.55;20.88;;;3.50;99.90;;;;;;5069197;28;20135;-73
2021/01/02 05:39:07;;;;;;;53.72;24.13;;;3.40;99.90;;;;;;5093247;28;20343;-73
2021/01/02 05:41:56;;;;;;;48.35;24.77;;;;;;;;;;5076922;28;20020;-73
2021/01/02 05:44:23;;;;;;;42.42;23.02;;;;;;;;;;5080745;28;20021;-73
2021/01/02 05:46:53;;;;;;;53.28;26.10;;;;;;;;;;5094749;28;20462;-72
2021/01/02 05:49:32;;;;;;;53.20;26.15;;;;;;;;;;5089748;28;20040;-71
2021/01/02 05:51:59;;;;;;;63.53;26.88;;;;;;;;;;5094178;28;20473;-73
2021/01/02 05:54:32;;;;;;;65.70;27.85;;;;;;;;;;5092877;28;20095;-74
2021/01/02 05:57:02;;;;;;;58.20;25.73;;;;;;;;;;5082866;28;20024;-72
2021/01/02 05:59:33;;;;;;;52.42;22.30;;;;;;;;;;5080350;28;20028;-74
2021/01/02 06:02:21;;;;;;;39.72;19.60;;;;;;;;;;5094080;28;20459;-72
2021/01/02 06:05:11;;;;;;;42.75;19.40;;;;;;;;;;5062720;28;20111;-75
2021/01/02 06:07:43;;;;;;;49.05;23.23;;;;;;;;;;5094088;28;20016;-74
2021/01/02 06:10:12;;;;;;;56.95;25.92;;;;;;;;;;5057538;28;20359;-73
2021/01/02 06:12:46;;;;;;;62.75;28.63;;;;;;;;;;5091368;28;20044;-72
2021/01/02 06:15:16;;;;;;;60.38;25.13;;;;;;;;;;5093533;28;20020;-73
2021/01/02 06:17:46;;;;;;;50.75;22.67;;;;;;;;;;5094535;28;20103;-75
2021/01/02 06:20:16;;;;;;;40.35;20.88;;;;;;;;;;5094363;28;20047;-73
2021/01/02 06:22:46;;;;;;;37.78;18.83;;;;;;;;;;5083035;28;20479;-73
2021/01/02 06:25:15;;;;;;;38.38;16.60;;;;;;;;;;5090847;28;20020;-74
2021/01/02 06:27:47;;;;;;;33.78;16.48;;;;;;;;;;5093762;28;20074;-73
2021/01/02 06:30:19;;;;;;;31.73;14.18;;;;;;;;;;5093676;28;20053;-74
2021/01/02 06:32:48;;;;;;;25.17;13.93;;;;;;;;;;5093385;28;20037;-74
2021/01/02 06:35:16;;;;;;;37.85;16.23;;;;;;;;;;5093223;28;20024;-73
2021/01/02 06:37:51;;;;;;;39.38;16.75;;;;;;;;;;5094124;28;20014;-74
2021/01/02 06:40:33;;;;;;;38.17;15.52;;;;;;;;;;5093794;28;20028;-76
2021/01/02 06:43:02;;;;;;;29.80;14.60;;;;;;;;;;5087915;28;20059;-73
2021/01/02 06:45:42;;;;;;;32.03;15.23;;;;;;;;;;5085219;28;20028;-75
2021/01/02 06:48:20;;;;;;;39.28;18.08;;;;;;;;;;5093409;28;20574;-73
2021/01/02 06:50:49;;;;;;;42.00;17.67;;;;;;;;;;5093262;28;20052;-72
2021/01/02 06:53:22;;;;;;;48.55;21.95;;;4.10;99.90;;;;;;5092734;28;20043;-73
2021/01/02 06:56:01;;;;;;;47.55;20.90;;;4.20;99.90;;;;;;5093313;28;20039;-73
2021/01/02 06:58:46;;;;;;;40.78;18.67;;;4.40;99.90;;;;;;5093445;28;20461;-77
2021/01/02 07:01:11;;;;;;;45.95;17.92;;;4.40;99.90;;;;;;5093414;28;20101;-74
2021/01/02 07:03:40;;;;;;;42.33;20.80;;;4.40;99.90;;;;;;5093237;28;20441;-73
2021/01/02 07:06:23;;;;;;;50.38;26.92;;;4.40;99.90;;;;;;5093527;28;20116;-72
2021/01/02 07:08:59;;;;;;;44.55;21.67;;;4.50;99.90;;;;;;5093640;28;20020;-71
2021/01/02 07:11:46;;;;;;;43.50;20.52;;;4.60;99.90;;;;;;5092739;28;20028;-73
2021/01/02 07:14:12;;;;;;;36.42;18.00;;;4.70;99.90;;;;;;5089115;28;20032;-73
2021/01/02 07:16:49;;;;;;;40.08;17.30;;;4.70;99.90;;;;;;5069690;28;20031;-74
2021/01/02 07:19:27;;;;;;;40.63;15.95;;;4.80;99.90;;;;;;5073518;28;20031;-74
2021/01/02 07:21:56;;;;;;;26.08;14.32;;;4.90;99.90;;;;;;5088078;28;20028;-75
2021/01/02 07:24:50;;;;;;;28.33;15.25;;;5.00;99.90;;;;;;5089355;28;20028;-72
2021/01/02 07:28:05;;;;;;;27.85;15.68;;;5.10;99.90;;;;;;5093336;28;20095;-74
2021/01/02 07:30:31;;;;;;;32.58;13.50;;;5.30;99.90;;;;;;5087972;28;20078;-76
2021/01/02 07:32:56;;;;;;;26.17;12.77;;;5.40;99.90;;;;;;5089692;28;20458;-72
2021/01/02 07:35:22;;;;;;;35.35;15.05;;;5.50;99.90;;;;;;5070624;28;20027;-73
2021/01/02 07:37:48;;;;;;;37.85;17.13;;;5.60;99.90;;;;;;5074305;28;20031;-74
2021/01/02 07:40:18;;;;;;;31.10;15.10;;;5.60;99.90;;;;;;5092246;28;20043;-75
2021/01/02 07:42:54;;;;;;;39.95;19.58;;;5.80;99.90;;;;;;5089536;28;20099;-73
2021/01/02 07:45:27;;;;;;;47.67;22.50;;;5.80;99.90;;;;;;5091846;28;20035;-74
2021/01/02 07:47:53;;;;;;;55.63;25.33;;;5.90;99.90;;;;;;5072495;28;20052;-74
2021/01/02 07:50:22;;;;;;;57.22;25.13;;;6.00;99.90;;;;;;5092910;28;20095;-73
2021/01/02 07:52:52;;;;;;;49.75;21.73;;;6.30;99.90;;;;;;5092130;28;20074;-74
2021/01/02 07:55:26;;;;;;;54.42;24.98;;;6.30;99.90;;;;;;5092692;28;20016;-72
2021/01/02 07:57:52;;;;;;;49.40;24.25;;;6.20;99.90;;;;;;5093229;28;20074;-73
2021/01/02 08:00:19;;;;;;;52.45;24.83;;;6.20;99.90;;;;;;5081576;28;20043;-73
2021/01/02 08:02:45;;;;;;;39.28;20.10;;;6.20;99.90;;;;;;5090287;28;20078;-73
2021/01/02 08:05:13;;;;;;;27.15;15.80;;;6.20;99.90;;;;;;5060527;28;20461;-72
2021/01/02 08:07:40;;;;;;;29.85;18.35;;;6.20;99.90;;;;;;5087522;28;20063;-74
2021/01/02 08:10:10;;;;;;;25.83;14.88;;;6.10;99.90;;;;;;5085370;28;20135;-74
2021/01/02 08:12:37;;;;;;;24.80;16.25;;;6.20;99.90;;;;;;5085530;28;20474;-73
2021/01/02 08:15:05;;;;;;;30.67;17.98;;;6.20;99.90;;;;;;5092934;28;20474;-73
2021/01/02 08:17:39;;;;;;;31.90;16.88;;;6.30;99.90;;;;;;5091003;28;20035;-74
2021/01/02 08:20:06;;;;;;;28.15;16.38;;;6.40;99.90;;;;;;5091031;28;20047;-72
2021/01/02 08:22:36;;;;;;;25.98;15.93;;;6.60;99.90;;;;;;5090619;28;20454;-75
2021/01/02 08:25:22;;;;;;;36.72;18.85;;;6.70;99.90;;;;;;5070575;28;20523;-73
2021/01/02 08:27:49;;;;;;;39.63;21.67;;;6.70;99.90;;;;;;5089758;28;20433;-74
2021/01/02 08:30:16;;;;;;;54.95;24.42;;;6.80;99.90;;;;;;5089184;28;20077;-73
2021/01/02 08:32:56;;;;;;;47.00;24.50;;;7.00;99.90;;;;;;5072165;28;20499;-74
2021/01/02 08:35:29;;;;;;;34.20;17.77;;;7.20;99.90;;;;;;5090177;28;20621;-73
2021/01/02 08:38:04;;;;;;;28.00;15.15;;;7.30;99.90;;;;;;5090952;28;20047;-74
2021/01/02 08:40:29;;;;;;;32.53;14.80;;;7.30;99.90;;;;;;5072342;28;20077;-74
2021/01/02 08:42:55;;;;;;;36.85;15.80;;;7.40;99.90;;;;;;5089997;28;20032;-73
2021/01/02 08:45:30;;;;;;;35.25;15.60;;;7.40;99.90;;;;;;5073775;28;20028;-76
2021/01/02 08:48:06;;;;;;;27.73;12.23;;;7.50;99.90;;;;;;5094505;28;20016;-73
2021/01/02 08:50:32;;;;;;;44.67;13.73;;;7.60;99.90;;;;;;5093708;28;20028;-73
2021/01/02 08:52:58;;;;;;;35.60;16.63;;;7.70;99.90;;;;;;5094927;28;20107;-74
2021/01/02 08:55:28;;;;;;;33.05;19.20;;;7.90;99.90;;;;;;5095684;28;20056;-73
2021/01/02 08:57:54;;;;;;;22.77;12.43;;;8.00;99.90;;;;;;5092827;28;20024;-74
2021/01/02 09:00:29;;;;;;;24.48;15.23;;;8.10;99.90;;;;;;5094337;28;20077;-73
2021/01/02 09:02:55;;;;;;;31.73;18.40;;;8.10;99.90;;;;;;5094459;28;20081;-74
2021/01/02 09:05:32;;;;;;;47.08;21.13;;;8.20;99.90;;;;;;5092634;28;20413;-74
2021/01/02 09:08:09;;;;;;;39.88;19.70;;;8.30;99.90;;;;;;5090375;28;20017;-73
2021/01/02 09:10:43;;;;;;;44.15;21.42;;;;;;;;;;5077228;28;20484;-74
2021/01/02 09:13:12;;;;;;;37.25;20.58;;;;;;;;;;5094711;28;20390;-72
2021/01/02 09:15:42;;;;;;;38.90;20.88;;;;;;;;;;5094759;28;20481;-73
2021/01/02 09:18:08;;;;;;;39.42;20.17;;;;;;;;;;5091219;28;20042;-73
2021/01/02 09:20:36;;;;;;;31.77;15.73;;;;;;;;;;5095663;28;20107;-72
2021/01/02 09:23:03;;;;;;;20.75;13.60;;;;;;;;;;5091586;28;20024;-72
2021/01/02 09:25:29;;;;;;;28.02;14.10;;;;;;;;;;5093672;28;20031;-78
2021/01/02 09:27:58;;;;;;;26.23;11.98;;;;;;;;;;5074288;28;20422;-73
2021/01/02 09:30:27;;;;;;;21.77;13.20;;;;;;;;;;5091303;28;20072;-72
2021/01/02 09:32:53;;;;;;;20.33;10.02;;;9.30;99.90;;;;;;5088451;28;20012;-72
2021/01/02 09:35:19;;;;;;;34.03;14.75;;;9.40;99.90;;;;;;5093838;28;20480;-76
2021/01/02 09:37:45;;;;;;;30.98;15.02;;;9.50;99.90;;;;;;5075483;28;20055;-70
2021/01/02 09:40:17;;;;;;;34.97;16.35;;;9.80;99.90;;;;;;5095258;28;20426;-73
2021/01/02 09:42:43;;;;;;;20.90;11.45;;;;;;;;;;5092097;28;20103;-72
2021/01/02 09:45:10;;;;;;;31.30;11.88;;;10.00;99.90;;;;;;5065517;28;20028;-72
2021/01/02 09:47:37;;;;;;;29.70;12.95;;;;;;;;;;5093562;28;20428;-73
2021/01/02 09:50:05;;;;;;;30.05;12.60;;;10.40;99.90;;;;;;5088465;28;20110;-72
2021/01/02 09:52:30;;;;;;;25.20;11.95;;;10.10;99.90;;;;;;5086455;28;20054;-72
2021/01/02 09:54:58;;;;;;;40.15;14.68;;;10.30;99.90;;;;;;5092114;28;20103;-72
2021/01/02 09:57:26;;;;;;;28.98;14.57;;;10.40;99.90;;;;;;5093331;28;20024;-73
2021/01/02 09:59:55;;;;;;;38.00;15.05;;;10.30;99.90;;;;;;5093767;28;20030;-71
2021/01/02 10:02:21;;;;;;;30.55;13.63;;;10.50;99.90;;;;;;5093204;28;20028;-73
2021/01/02 10:04:48;;;;;;;18.33;6.68;;;10.60;99.90;;;;;;5093348;28;20450;-72
2021/01/02 10:07:16;;;;;;;14.55;7.65;;;10.70;99.90;;;;;;5094005;28;20077;-72
2021/01/02 10:09:46;;;;;;;12.60;6.78;;;10.80;99.90;;;;;;5094257;28;20115;-74
2021/01/02 10:12:14;;;;;;;16.65;6.93;;;10.80;99.90;;;;;;5094594;28;20517;-74
2021/01/02 10:14:40;;;;;;;15.90;8.05;;;10.90;99.90;;;;;;5093514;28;20028;-74
2021/01/02 10:17:06;;;;;;;22.05;8.90;;;11.00;99.90;;;;;;5089782;28;20039;-74
2021/01/02 10:19:32;;;;;;;28.35;11.45;;;11.00;99.90;;;;;;5094677;28;20032;-74
2021/01/02 10:21:59;;;;;;;29.40;12.13;;;11.20;99.90;;;;;;5093986;28;20032;-72
2021/01/02 10:24:26;;;;;;;33.25;12.35;;;11.20;99.90;;;;;;5065578;28;20476;-74
2021/01/02 10:26:51;;;;;;;39.38;12.30;;;11.30;99.90;;;;;;5090410;28;20058;-74
2021/01/02 10:29:17;;;;;;;18.23;9.10;;;11.40;99.90;;;;;;5094699;28;20048;-72
2021/01/02 10:31:44;;;;;;;17.30;7.85;;;11.40;99.90;;;;;;5093811;28;20474;-74
2021/01/02 10:34:11;;;;;;;15.95;7.03;;;11.30;99.90;;;;;;5093200;28;20028;-77
2021/01/02 10:36:36;;;;;;;28.38;10.07;;;11.30;99.90;;;;;;5092672;28;20024;-76
2021/01/02 10:39:03;;;;;;;13.57;7.55;;;11.40;99.90;;;;;;5095344;28;20031;-77
2021/01/02 10:41:29;;;;;;;19.17;8.52;;;11.40;99.90;;;;;;5074187;28;20126;-77
2021/01/02 10:43:55;;;;;;;18.63;10.15;;;11.50;99.90;;;;;;5069735;28;20122;-79
2021/01/02 10:46:21;;;;;;;20.30;11.13;;;11.50;99.90;;;;;;5073956;28;20028;-77
2021/01/02 10:48:47;;;;;;;20.77;9.30;;;11.60;99.90;;;;;;5069512;28;20031;-77
2021/01/02 10:51:16;;;;;;;24.38;8.63;;;11.60;99.90;;;;;;5089503;28;20043;-75
2021/01/02 10:53:42;;;;;;;18.48;9.10;;;11.70;99.90;;;;;;5092292;28;20043;-76
2021/01/02 10:56:16;;;;;;;23.35;11.23;;;11.80;99.90;;;;;;5093101;28;20031;-76
2021/01/02 10:58:42;;;;;;;22.63;9.38;;;11.90;99.90;;;;;;5091643;28;20039;-75
2021/01/02 11:01:08;;;;;;;14.77;7.93;;;12.50;99.90;;;;;;5090140;28;20024;-75
2021/01/02 11:03:35;;;;;;;23.17;8.88;;;12.20;99.90;;;;;;5092135;28;20044;-82
2021/01/02 11:06:06;;;;;;;21.02;8.20;;;12.30;99.90;;;;;;5091815;28;20066;-78
2021/01/02 11:08:33;;;;;;;12.57;6.30;;;;;;;;;;5088813;28;20065;-78
2021/01/02 11:11:01;;;;;;;11.52;5.82;;;12.30;99.90;;;;;;5091692;28;20108;-81
2021/01/02 11:13:27;;;;;;;22.45;8.18;;;;;;;;;;5069876;28;20139;-75
2021/01/02 11:15:54;;;;;;;19.75;6.15;;;;;;;;;;5079035;28;20028;-75
2021/01/02 11:18:21;;;;;;;17.38;6.50;;;;;;;;;;5088041;28;20027;-73
2021/01/02 11:20:51;;;;;;;25.80;8.52;;;;;;;;;;5095300;28;20024;-79
2021/01/02 11:23:21;;;;;;;12.70;6.18;;;;;;;;;;5092912;28;20055;-79
2021/01/02 11:25:49;;;;;;;15.52;6.65;;;;;;;;;;5089277;28;20095;-79
2021/01/02 11:28:15;;;;;;;7.70;4.70;;;;;;;;;;5092569;28;20053;-80
2021/01/02 11:30:41;;;;;;;9.00;4.20;;;;;;;;;;5074497;28;20052;-77
2021/01/02 11:33:07;;;;;;;8.90;3.72;;;;;;;;;;5092641;28;20019;-79
2021/01/02 11:35:37;;;;;;;15.77;5.97;;;13.00;99.90;;;;;;5074147;28;20035;-79
2021/01/02 11:38:05;;;;;;;8.73;4.03;;;13.00;99.90;;;;;;5092840;28;20359;-78
2021/01/02 11:40:32;;;;;;;5.75;3.35;;;;;;;;;;5092780;28;20024;-78
2021/01/02 11:43:01;;;;;;;7.18;3.58;;;;;;;;;;5090031;28;20020;-74
2021/01/02 11:45:34;;;;;;;11.52;6.38;;;;;;;;;;5089082;28;20039;-77
2021/01/02 11:48:02;;;;;;;4.60;3.20;;;;;;;;;;5069813;28;20055;-73
2021/01/02 11:50:31;;;;;;;9.80;3.55;;;;;;;;;;5090487;28;20039;-77
2021/01/02 11:53:01;;;;;;;16.00;5.10;;;;;;;;;;5073105;28;20055;-75
2021/01/02 11:55:31;;;;;;;10.30;4.35;;;;;;;;;;5090750;28;20083;-79
2021/01/02 11:58:02;;;;;;;6.47;3.83;;;;;;;;;;5087505;28;20028;-79
2021/01/02 12:00:31;;;;;;;7.90;3.92;;;;;;;;;;5070219;28;20024;-79
2021/01/02 12:02:57;;;;;;;7.95;3.70;;;13.30;99.90;;;;;;5086753;28;20051;-76
2021/01/02 12:05:24;;;;;;;6.30;3.42;;;13.30;99.90;;;;;;5088690;28;20032;-74
2021/01/02 12:07:50;;;;;;;4.78;3.40;;;13.30;99.90;;;;;;5091344;28;20031;-78
2021/01/02 12:10:16;;;;;;;4.28;2.83;;;13.30;99.90;;;;;;5091402;28;20115;-81
2021/01/02 12:12:43;;;;;;;6.75;2.88;;;13.30;99.90;;;;;;5087375;28;20031;-73
2021/01/02 12:15:09;;;;;;;9.35;4.05;;;13.30;99.90;;;;;;5091724;28;20024;-73
2021/01/02 12:17:35;;;;;;;17.17;5.97;;;13.30;99.90;;;;;;5080355;28;20056;-73
2021/01/02 12:20:02;;;;;;;6.43;3.30;;;13.40;99.90;;;;;;5091798;28;20444;-78
2021/01/02 12:22:29;;;;;;;8.93;5.15;;;13.40;99.90;;;;;;5091964;28;20024;-76
2021/01/02 12:24:56;;;;;;;8.00;3.65;;;13.40;99.90;;;;;;5074651;28;20513;-76
2021/01/02 12:27:22;;;;;;;7.85;3.55;;;13.40;99.90;;;;;;5077606;28;20116;-77
2021/01/02 12:29:48;;;;;;;5.55;3.05;;;13.40;99.90;;;;;;5077044;28;20103;-73
2021/01/02 12:32:14;;;;;;;6.95;3.33;;;;;;;;;;5095621;28;20056;-82
2021/01/02 12:34:42;;;;;;;8.60;4.28;;;;;;;;;;5076958;28;20484;-74
2021/01/02 12:37:13;;;;;;;25.98;5.63;;;;;;;;;;5094137;28;20415;-74
2021/01/02 12:39:41;;;;;;;18.38;7.78;;;;;;;;;;5083920;28;20073;-73
2021/01/02 12:42:07;;;;;;;14.40;6.15;;;;;;;;;;5065782;28;20421;-75
2021/01/02 12:44:37;;;;;;;13.60;6.10;;;;;;;;;;5078016;28;20028;-72
2021/01/02 12:47:24;;;;;;;13.13;6.55;;;;;;;;;;5092530;28;20030;-72
2021/01/02 12:49:52;;;;;;;18.75;9.20;;;;;;;;;;5094361;28;20085;-75
2021/01/02 12:52:19;;;;;;;13.60;8.82;;;;;;;;;;5095000;28;20024;-73
2021/01/02 12:54:46;;;;;;;21.13;10.00;;;;;;;;;;5097713;28;20020;-82
2021/01/02 12:57:15;;;;;;;13.13;7.28;;;;;;;;;;5096473;28;20032;-73
2021/01/02 12:59:42;;;;;;;14.68;7.60;;;;;;;;;;5096200;28;20047;-74
2021/01/02 13:02:12;;;;;;;9.85;5.32;;;;;;;;;;5095961;28;20028;-73
2021/01/02 13:04:42;;;;;;;11.05;6.38;;;;;;;;;;5092830;28;20058;-72
2021/01/02 13:07:12;;;;;;;13.93;7.28;;;;;;;;;;5094486;28;20021;-73
2021/01/02 13:09:41;;;;;;;13.18;7.35;;;;;;;;;;5091589;28;20016;-73
2021/01/02 13:12:11;;;;;;;19.13;8.27;;;;;;;;;;5091082;28;20032;-73
2021/01/02 13:14:43;;;;;;;15.63;8.38;;;;;;;;;;5068934;28;20081;-72
2021/01/02 13:17:13;;;;;;;8.75;5.50;;;;;;;;;;5072777;28;20047;-77
2021/01/02 13:19:43;;;;;;;12.88;6.53;;;;;;;;;;5091226;28;20377;-74
2021/01/02 13:22:13;;;;;;;9.40;7.25;;;;;;;;;;5072179;28;20106;-71